sensor_id;sensor_type;location;lat;lon;timestamp;pressure;altitude;pressure_sealevel;temperature;humidity
43155;BME280;34212;51.018;13.586;2023-07-16T00:04:56;97332.47;;;23.63;52.64
43155;BME280;34212;51.018;13.586;2023-07-16T00:09:57;97345.00;;;23.54;53.13
43155;BME280;34212;51.018;13.586;2023-07-16T00:14:59;97480.53;;;23.41;53.27
43155;BME280;34212;51.018;13.586;2023-07-16T00:20:00;97470.44;;;23.32;55.64
43155;BME280;34212;51.018;13.586;2023-07-16T00:25:02;97488.69;;;23.31;56.48
43155;BME280;34212;51.018;13.586;2023-07-16T00:30:04;97506.63;;;23.32;57.37
43155;BME280;34212;51.018;13.586;2023-07-16T00:35:06;97504.72;;;23.38;57.61
43155;BME280;34212;51.018;13.586;2023-07-16T00:40:08;97526.47;;;23.33;58.38
43155;BME280;34212;51.018;13.586;2023-07-16T00:45:12;97515.59;;;23.33;59.23
43155;BME280;34212;51.018;13.586;2023-07-16T00:50:15;97538.19;;;23.33;59.70
43155;BME280;34212;51.018;13.586;2023-07-16T00:55:17;97537.09;;;23.34;59.96
43155;BME280;34212;51.018;13.586;2023-07-16T01:00:19;97544.72;;;23.37;59.63
43155;BME280;34212;51.018;13.586;2023-07-16T01:05:24;97540.34;;;23.36;60.39
43155;BME280;34212;51.018;13.586;2023-07-16T01:10:28;97530.84;;;23.39;60.94
43155;BME280;34212;51.018;13.586;2023-07-16T01:15:29;97526.50;;;23.38;60.54
43155;BME280;34212;51.018;13.586;2023-07-16T01:20:31;97503.09;;;23.37;61.24
43155;BME280;34212;51.018;13.586;2023-07-16T01:31:05;97498.75;;;22.63;65.66
43155;BME280;34212;51.018;13.586;2023-07-16T01:36:08;97479.63;;;22.37;67.08
43155;BME280;34212;51.018;13.586;2023-07-16T01:41:10;97447.97;;;22.16;67.71
43155;BME280;34212;51.018;13.586;2023-07-16T01:46:12;97456.31;;;22.04;68.28
43155;BME280;34212;51.018;13.586;2023-07-16T01:51:14;97493.81;;;22.07;68.15
43155;BME280;34212;51.018;13.586;2023-07-16T01:56:16;97505.75;;;22.11;68.14
43155;BME280;34212;51.018;13.586;2023-07-16T02:01:22;97508.56;;;22.16;68.38
43155;BME280;34212;51.018;13.586;2023-07-16T02:06:23;97481.03;;;22.07;69.27
43155;BME280;34212;51.018;13.586;2023-07-16T02:11:25;97439.03;;;21.78;70.64
43155;BME280;34212;51.018;13.586;2023-07-16T02:16:26;97527.09;;;21.60;71.48
43155;BME280;34212;51.018;13.586;2023-07-16T02:21:28;97555.53;;;21.57;71.95
43155;BME280;34212;51.018;13.586;2023-07-16T02:26:30;97554.72;;;21.57;72.34
43155;BME280;34212;51.018;13.586;2023-07-16T02:31:31;97548.50;;;21.56;72.41
43155;BME280;34212;51.018;13.586;2023-07-16T02:36:33;97536.09;;;21.38;73.23
43155;BME280;34212;51.018;13.586;2023-07-16T02:41:34;97563.81;;;21.18;74.32
43155;BME280;34212;51.018;13.586;2023-07-16T02:46:36;97591.25;;;21.00;75.20
43155;BME280;34212;51.018;13.586;2023-07-16T02:51:37;97610.22;;;21.00;75.65
43155;BME280;34212;51.018;13.586;2023-07-16T02:56:39;97620.56;;;21.03;75.58
43155;BME280;34212;51.018;13.586;2023-07-16T03:01:40;97616.19;;;21.02;76.04
43155;BME280;34212;51.018;13.586;2023-07-16T03:06:42;97618.06;;;21.02;75.45
43155;BME280;34212;51.018;13.586;2023-07-16T03:11:44;97628.94;;;21.02;75.98
43155;BME280;34212;51.018;13.586;2023-07-16T03:16:45;97633.53;;;21.01;76.49
43155;BME280;34212;51.018;13.586;2023-07-16T03:21:48;97646.00;;;21.02;76.73
43155;BME280;34212;51.018;13.586;2023-07-16T03:26:51;97678.31;;;21.04;77.24
43155;BME280;34212;51.018;13.586;2023-07-16T03:31:59;97671.22;;;21.03;77.45
43155;BME280;34212;51.018;13.586;2023-07-16T03:37:01;97661.72;;;21.00;77.57
43155;BME280;34212;51.018;13.586;2023-07-16T03:42:05;97630.25;;;20.99;78.19
43155;BME280;34212;51.018;13.586;2023-07-16T03:47:07;97640.78;;;20.95;78.50
43155;BME280;34212;51.018;13.586;2023-07-16T03:52:09;97611.63;;;20.86;78.47
43155;BME280;34212;51.018;13.586;2023-07-16T03:57:10;97590.88;;;20.74;79.41
43155;BME280;34212;51.018;13.586;2023-07-16T04:02:12;97573.00;;;20.73;80.34
43155;BME280;34212;51.018;13.586;2023-07-16T04:07:14;97571.41;;;20.77;80.31
43155;BME280;34212;51.018;13.586;2023-07-16T04:12:17;97563.13;;;20.84;80.34
43155;BME280;34212;51.018;13.586;2023-07-16T04:17:18;97566.69;;;20.90;80.53
43155;BME280;34212;51.018;13.586;2023-07-16T04:22:20;97564.06;;;20.95;80.47
43155;BME280;34212;51.018;13.586;2023-07-16T04:27:21;97567.34;;;20.97;80.88
43155;BME280;34212;51.018;13.586;2023-07-16T04:32:23;97560.84;;;20.98;80.78
43155;BME280;34212;51.018;13.586;2023-07-16T04:37:24;97579.53;;;20.99;81.08
43155;BME280;34212;51.018;13.586;2023-07-16T04:42:26;97573.06;;;21.01;81.38
43155;BME280;34212;51.018;13.586;2023-07-16T04:47:27;97609.22;;;21.06;81.47
43155;BME280;34212;51.018;13.586;2023-07-16T04:52:29;97594.66;;;21.12;81.86
43155;BME280;34212;51.018;13.586;2023-07-16T04:57:32;97581.13;;;21.17;81.70
43155;BME280;34212;51.018;13.586;2023-07-16T05:02:34;97558.88;;;21.15;82.07
43155;BME280;34212;51.018;13.586;2023-07-16T05:07:35;97523.06;;;21.13;81.72
43155;BME280;34212;51.018;13.586;2023-07-16T05:12:37;97526.00;;;21.12;81.97
43155;BME280;34212;51.018;13.586;2023-07-16T05:17:38;97544.75;;;21.13;82.39
43155;BME280;34212;51.018;13.586;2023-07-16T05:22:40;97563.75;;;21.13;82.40
43155;BME280;34212;51.018;13.586;2023-07-16T05:27:42;97583.53;;;21.14;82.75
43155;BME280;34212;51.018;13.586;2023-07-16T05:32:43;97590.06;;;21.18;82.93
43155;BME280;34212;51.018;13.586;2023-07-16T05:37:45;97594.47;;;21.24;82.99
43155;BME280;34212;51.018;13.586;2023-07-16T05:42:46;97605.63;;;21.28;82.73
43155;BME280;34212;51.018;13.586;2023-07-16T05:47:47;97621.16;;;21.32;82.85
43155;BME280;34212;51.018;13.586;2023-07-16T05:52:49;97624.81;;;21.38;83.29
43155;BME280;34212;51.018;13.586;2023-07-16T05:57:51;97649.00;;;21.44;83.28
43155;BME280;34212;51.018;13.586;2023-07-16T06:02:52;97671.28;;;21.47;83.11
43155;BME280;34212;51.018;13.586;2023-07-16T06:07:54;97670.41;;;21.41;83.50
43155;BME280;34212;51.018;13.586;2023-07-16T06:12:55;97680.94;;;21.37;83.80
43155;BME280;34212;51.018;13.586;2023-07-16T06:17:57;97686.69;;;21.41;84.09
43155;BME280;34212;51.018;13.586;2023-07-16T06:22:58;97698.59;;;21.40;84.19
43155;BME280;34212;51.018;13.586;2023-07-16T06:28:00;97701.44;;;21.50;84.62
43155;BME280;34212;51.018;13.586;2023-07-16T06:33:01;97709.69;;;21.60;84.12
43155;BME280;34212;51.018;13.586;2023-07-16T06:38:03;97714.84;;;21.62;83.87
43155;BME280;34212;51.018;13.586;2023-07-16T06:43:05;97723.88;;;21.67;84.47
43155;BME280;34212;51.018;13.586;2023-07-16T06:48:07;97718.63;;;21.83;84.46
43155;BME280;34212;51.018;13.586;2023-07-16T06:53:08;97714.19;;;21.99;83.80
43155;BME280;34212;51.018;13.586;2023-07-16T06:58:10;97705.84;;;22.05;83.45
43155;BME280;34212;51.018;13.586;2023-07-16T07:03:12;97732.06;;;22.17;83.00
43155;BME280;34212;51.018;13.586;2023-07-16T07:08:14;97709.09;;;22.29;82.89
43155;BME280;34212;51.018;13.586;2023-07-16T07:13:15;97717.84;;;22.36;82.24
43155;BME280;34212;51.018;13.586;2023-07-16T07:18:17;97733.38;;;22.41;81.52
43155;BME280;34212;51.018;13.586;2023-07-16T07:23:18;97734.50;;;22.45;80.58
43155;BME280;34212;51.018;13.586;2023-07-16T07:28:20;97747.63;;;22.53;79.17
43155;BME280;34212;51.018;13.586;2023-07-16T07:33:21;97750.91;;;22.55;77.16
43155;BME280;34212;51.018;13.586;2023-07-16T07:38:23;97757.47;;;22.59;77.73
43155;BME280;34212;51.018;13.586;2023-07-16T07:43:24;97768.94;;;22.67;76.59
43155;BME280;34212;51.018;13.586;2023-07-16T07:48:26;97771.13;;;22.70;75.13
43155;BME280;34212;51.018;13.586;2023-07-16T07:53:27;97782.00;;;22.70;74.67
43155;BME280;34212;51.018;13.586;2023-07-16T07:58:29;97784.78;;;22.75;74.00
43155;BME280;34212;51.018;13.586;2023-07-16T08:03:30;97792.97;;;22.80;73.24
43155;BME280;34212;51.018;13.586;2023-07-16T08:08:32;97779.41;;;22.85;73.03
43155;BME280;34212;51.018;13.586;2023-07-16T08:13:34;97768.66;;;22.95;72.23
43155;BME280;34212;51.018;13.586;2023-07-16T08:18:35;97772.50;;;22.99;71.05
43155;BME280;34212;51.018;13.586;2023-07-16T08:23:37;97776.91;;;23.05;70.31
43155;BME280;34212;51.018;13.586;2023-07-16T08:28:38;97784.25;;;23.10;70.27
43155;BME280;34212;51.018;13.586;2023-07-16T08:33:43;97791.81;;;23.45;70.72
43155;BME280;34212;51.018;13.586;2023-07-16T08:38:44;97784.94;;;23.75;69.29
43155;BME280;34212;51.018;13.586;2023-07-16T08:43:46;97789.34;;;23.81;67.38
43155;BME280;34212;51.018;13.586;2023-07-16T08:48:51;97791.50;;;23.79;66.60
43155;BME280;34212;51.018;13.586;2023-07-16T08:53:53;97800.78;;;23.83;66.79
43155;BME280;34212;51.018;13.586;2023-07-16T08:58:55;97805.75;;;24.02;67.71
43155;BME280;34212;51.018;13.586;2023-07-16T09:03:59;97818.28;;;24.03;65.71
43155;BME280;34212;51.018;13.586;2023-07-16T09:09:01;97812.09;;;24.23;66.13
43155;BME280;34212;51.018;13.586;2023-07-16T09:14:02;97808.59;;;24.37;66.78
43155;BME280;34212;51.018;13.586;2023-07-16T09:19:09;97814.03;;;24.37;67.18
43155;BME280;34212;51.018;13.586;2023-07-16T09:24:12;97817.88;;;24.41;67.59
43155;BME280;34212;51.018;13.586;2023-07-16T09:29:13;97820.88;;;24.45;68.25
43155;BME280;34212;51.018;13.586;2023-07-16T09:34:14;97820.06;;;24.45;66.78
43155;BME280;34212;51.018;13.586;2023-07-16T09:39:17;97815.72;;;24.54;64.26
43155;BME280;34212;51.018;13.586;2023-07-16T09:44:19;97826.09;;;24.67;61.83
43155;BME280;34212;51.018;13.586;2023-07-16T09:49:21;97824.50;;;24.81;60.50
43155;BME280;34212;51.018;13.586;2023-07-16T09:54:25;97817.41;;;24.91;60.60
43155;BME280;34212;51.018;13.586;2023-07-16T09:59:31;97835.97;;;25.04;59.56
43155;BME280;34212;51.018;13.586;2023-07-16T10:04:38;97838.41;;;25.10;57.53
43155;BME280;34212;51.018;13.586;2023-07-16T10:09:54;97838.72;;;24.99;56.95
43155;BME280;34212;51.018;13.586;2023-07-16T10:14:58;97843.03;;;24.95;57.76
43155;BME280;34212;51.018;13.586;2023-07-16T10:20:06;97846.03;;;24.98;57.22
43155;BME280;34212;51.018;13.586;2023-07-16T10:25:21;97848.56;;;25.15;57.54
43155;BME280;34212;51.018;13.586;2023-07-16T10:30:23;97858.91;;;25.28;57.72
43155;BME280;34212;51.018;13.586;2023-07-16T10:35:24;97858.09;;;25.33;57.50
43155;BME280;34212;51.018;13.586;2023-07-16T10:40:26;97866.84;;;25.45;57.11
43155;BME280;34212;51.018;13.586;2023-07-16T10:45:28;97864.91;;;25.61;56.25
43155;BME280;34212;51.018;13.586;2023-07-16T10:50:33;97853.41;;;25.64;57.08
43155;BME280;34212;51.018;13.586;2023-07-16T10:55:35;97858.88;;;25.64;57.53
43155;BME280;34212;51.018;13.586;2023-07-16T11:00:39;97855.03;;;25.70;56.65
43155;BME280;34212;51.018;13.586;2023-07-16T11:05:41;97860.22;;;25.72;56.68
43155;BME280;34212;51.018;13.586;2023-07-16T11:10:42;97863.50;;;25.74;56.04
43155;BME280;34212;51.018;13.586;2023-07-16T11:15:44;97860.75;;;25.74;53.65
43155;BME280;34212;51.018;13.586;2023-07-16T11:20:45;97849.00;;;25.78;53.06
43155;BME280;34212;51.018;13.586;2023-07-16T11:25:51;97847.59;;;26.01;52.86
43155;BME280;34212;51.018;13.586;2023-07-16T11:30:53;97860.06;;;26.23;53.51
43155;BME280;34212;51.018;13.586;2023-07-16T11:35:55;97859.72;;;26.40;54.09
43155;BME280;34212;51.018;13.586;2023-07-16T11:41:00;97865.19;;;26.40;53.51
43155;BME280;34212;51.018;13.586;2023-07-16T11:46:02;97842.75;;;26.48;53.62
43155;BME280;34212;51.018;13.586;2023-07-16T11:51:04;97832.28;;;26.60;54.04
43155;BME280;34212;51.018;13.586;2023-07-16T11:56:06;97829.22;;;26.72;53.18
43155;BME280;34212;51.018;13.586;2023-07-16T12:01:07;97823.69;;;26.82;52.99
43155;BME280;34212;51.018;13.586;2023-07-16T12:06:09;97834.88;;;26.86;52.98
43155;BME280;34212;51.018;13.586;2023-07-16T12:11:10;97826.13;;;26.84;53.62
43155;BME280;34212;51.018;13.586;2023-07-16T12:16:12;97828.56;;;26.85;52.85
43155;BME280;34212;51.018;13.586;2023-07-16T12:21:13;97830.47;;;26.90;52.03
43155;BME280;34212;51.018;13.586;2023-07-16T12:26:15;97813.94;;;27.00;52.55
43155;BME280;34212;51.018;13.586;2023-07-16T12:31:17;97824.78;;;27.21;52.41
43155;BME280;34212;51.018;13.586;2023-07-16T12:36:19;97816.88;;;27.43;52.75
43155;BME280;34212;51.018;13.586;2023-07-16T12:41:20;97821.41;;;27.58;52.62
43155;BME280;34212;51.018;13.586;2023-07-16T12:46:22;97828.34;;;27.74;52.09
43155;BME280;34212;51.018;13.586;2023-07-16T12:51:23;97824.47;;;27.75;51.57
43155;BME280;34212;51.018;13.586;2023-07-16T12:56:25;97826.94;;;27.77;51.01
43155;BME280;34212;51.018;13.586;2023-07-16T13:01:27;97822.56;;;27.76;50.98
43155;BME280;34212;51.018;13.586;2023-07-16T13:06:28;97827.88;;;27.91;51.27
43155;BME280;34212;51.018;13.586;2023-07-16T13:11:30;97816.94;;;28.34;49.23
43155;BME280;34212;51.018;13.586;2023-07-16T13:16:32;97811.84;;;28.84;47.86
43155;BME280;34212;51.018;13.586;2023-07-16T13:21:33;97815.91;;;29.38;48.36
43155;BME280;34212;51.018;13.586;2023-07-16T13:26:35;97823.16;;;29.48;46.06
43155;BME280;34212;51.018;13.586;2023-07-16T13:31:36;97813.44;;;29.23;45.46
43155;BME280;34212;51.018;13.586;2023-07-16T13:36:38;97823.66;;;29.04;46.42
43155;BME280;34212;51.018;13.586;2023-07-16T13:41:39;97826.69;;;28.83;45.82
43155;BME280;34212;51.018;13.586;2023-07-16T13:46:41;97832.72;;;28.66;45.30
43155;BME280;34212;51.018;13.586;2023-07-16T13:51:43;97819.94;;;28.57;45.28
43155;BME280;34212;51.018;13.586;2023-07-16T13:56:44;97825.38;;;28.38;44.91
43155;BME280;34212;51.018;13.586;2023-07-16T14:01:46;97829.66;;;28.25;45.61
43155;BME280;34212;51.018;13.586;2023-07-16T14:06:48;97821.44;;;28.25;45.82
43155;BME280;34212;51.018;13.586;2023-07-16T14:11:50;97818.19;;;28.23;44.74
43155;BME280;34212;51.018;13.586;2023-07-16T14:16:51;97825.31;;;28.24;44.25
43155;BME280;34212;51.018;13.586;2023-07-16T14:21:53;97823.09;;;28.26;43.48
43155;BME280;34212;51.018;13.586;2023-07-16T14:26:58;97819.75;;;28.29;42.82
43155;BME280;34212;51.018;13.586;2023-07-16T14:32:01;97820.03;;;28.27;42.62
43155;BME280;34212;51.018;13.586;2023-07-16T14:37:03;97824.72;;;28.27;42.57
43155;BME280;34212;51.018;13.586;2023-07-16T14:42:06;97825.31;;;28.24;41.88
43155;BME280;34212;51.018;13.586;2023-07-16T14:47:08;97813.81;;;28.22;42.12
43155;BME280;34212;51.018;13.586;2023-07-16T14:52:09;97816.53;;;28.22;41.38
43155;BME280;34212;51.018;13.586;2023-07-16T14:57:10;97811.06;;;28.22;41.36
43155;BME280;34212;51.018;13.586;2023-07-16T15:02:12;97811.28;;;28.25;41.61
43155;BME280;34212;51.018;13.586;2023-07-16T15:07:14;97801.97;;;28.26;41.41
43155;BME280;34212;51.018;13.586;2023-07-16T15:12:15;97802.19;;;28.30;41.14
43155;BME280;34212;51.018;13.586;2023-07-16T15:17:17;97798.63;;;28.29;40.86
43155;BME280;34212;51.018;13.586;2023-07-16T15:22:18;97793.44;;;28.28;40.88
43155;BME280;34212;51.018;13.586;2023-07-16T15:27:21;97800.84;;;28.27;41.18
43155;BME280;34212;51.018;13.586;2023-07-16T15:32:23;97794.25;;;28.28;40.90
43155;BME280;34212;51.018;13.586;2023-07-16T15:37:24;97793.44;;;28.28;41.05
43155;BME280;34212;51.018;13.586;2023-07-16T15:42:27;97798.63;;;28.29;40.38
43155;BME280;34212;51.018;13.586;2023-07-16T15:47:28;97786.56;;;28.30;40.37
43155;BME280;34212;51.018;13.586;2023-07-16T15:52:30;97793.91;;;28.35;40.57
43155;BME280;34212;51.018;13.586;2023-07-16T15:57:34;97790.84;;;28.37;40.56
43155;BME280;34212;51.018;13.586;2023-07-16T16:02:36;97796.13;;;28.33;39.65
43155;BME280;34212;51.018;13.586;2023-07-16T16:07:46;97794.50;;;28.32;39.84
43155;BME280;34212;51.018;13.586;2023-07-16T16:12:47;97797.25;;;28.32;39.68
43155;BME280;34212;51.018;13.586;2023-07-16T16:17:49;97791.00;;;28.26;39.81
43155;BME280;34212;51.018;13.586;2023-07-16T16:22:50;97795.75;;;28.21;39.94
43155;BME280;34212;51.018;13.586;2023-07-16T16:27:52;97804.56;;;28.18;39.96
43155;BME280;34212;51.018;13.586;2023-07-16T16:32:54;97792.25;;;28.15;39.93
43155;BME280;34212;51.018;13.586;2023-07-16T16:37:56;97801.59;;;28.33;39.29
43155;BME280;34212;51.018;13.586;2023-07-16T16:42:57;97807.63;;;28.35;39.36
43155;BME280;34212;51.018;13.586;2023-07-16T16:48:02;97805.53;;;28.27;39.24
43155;BME280;34212;51.018;13.586;2023-07-16T16:53:05;97803.97;;;28.21;39.37
43155;BME280;34212;51.018;13.586;2023-07-16T16:58:06;97810.25;;;28.21;39.03
43155;BME280;34212;51.018;13.586;2023-07-16T17:03:08;97812.53;;;28.76;38.58
43155;BME280;34212;51.018;13.586;2023-07-16T17:08:09;97814.78;;;29.86;37.53
43155;BME280;34212;51.018;13.586;2023-07-16T17:13:11;97826.56;;;29.86;36.67
43155;BME280;34212;51.018;13.586;2023-07-16T17:18:13;97821.63;;;30.66;36.09
43155;BME280;34212;51.018;13.586;2023-07-16T17:23:15;97829.81;;;30.44;36.69
43155;BME280;34212;51.018;13.586;2023-07-16T17:28:16;97836.97;;;29.76;37.52
43155;BME280;34212;51.018;13.586;2023-07-16T17:33:18;97837.81;;;29.11;37.57
43155;BME280;34212;51.018;13.586;2023-07-16T17:38:19;97824.22;;;28.63;37.99
43155;BME280;34212;51.018;13.586;2023-07-16T17:43:21;97837.31;;;28.28;38.30
43155;BME280;34212;51.018;13.586;2023-07-16T17:48:23;97827.78;;;28.01;38.63
43155;BME280;34212;51.018;13.586;2023-07-16T17:53:24;97836.78;;;27.83;38.82
43155;BME280;34212;51.018;13.586;2023-07-16T17:58:26;97838.28;;;27.65;39.06
43155;BME280;34212;51.018;13.586;2023-07-16T18:03:27;97845.31;;;27.47;39.02
43155;BME280;34212;51.018;13.586;2023-07-16T18:08:29;97841.91;;;27.31;39.47
43155;BME280;34212;51.018;13.586;2023-07-16T18:13:31;97848.31;;;27.16;39.62
43155;BME280;34212;51.018;13.586;2023-07-16T18:18:32;97847.59;;;27.01;39.51
43155;BME280;34212;51.018;13.586;2023-07-16T18:23:35;97843.91;;;26.81;39.94
43155;BME280;34212;51.018;13.586;2023-07-16T18:28:38;97845.69;;;26.62;39.83
43155;BME280;34212;51.018;13.586;2023-07-16T18:33:40;97857.81;;;26.40;40.59
43155;BME280;34212;51.018;13.586;2023-07-16T18:38:41;97861.97;;;26.22;40.87
43155;BME280;34212;51.018;13.586;2023-07-16T18:43:43;97859.59;;;26.06;40.71
43155;BME280;34212;51.018;13.586;2023-07-16T18:48:46;97867.56;;;25.92;41.28
43155;BME280;34212;51.018;13.586;2023-07-16T18:53:48;97871.41;;;25.80;41.23
43155;BME280;34212;51.018;13.586;2023-07-16T18:58:49;97876.91;;;25.65;42.00
43155;BME280;34212;51.018;13.586;2023-07-16T19:03:51;97878.28;;;25.47;42.50
43155;BME280;34212;51.018;13.586;2023-07-16T19:08:52;97872.56;;;25.28;43.26
43155;BME280;34212;51.018;13.586;2023-07-16T19:13:54;97885.63;;;25.11;43.18
43155;BME280;34212;51.018;13.586;2023-07-16T19:18:57;97878.25;;;24.96;44.13
43155;BME280;34212;51.018;13.586;2023-07-16T19:23:58;97879.59;;;24.83;44.06
43155;BME280;34212;51.018;13.586;2023-07-16T19:29:00;97886.13;;;24.72;44.49
43155;BME280;34212;51.018;13.586;2023-07-16T19:34:01;97885.53;;;24.60;44.93
43155;BME280;34212;51.018;13.586;2023-07-16T19:39:03;97902.44;;;24.52;45.15
43155;BME280;34212;51.018;13.586;2023-07-16T19:44:05;97899.09;;;24.39;45.41
43155;BME280;34212;51.018;13.586;2023-07-16T19:49:07;97908.28;;;24.28;45.30
43155;BME280;34212;51.018;13.586;2023-07-16T19:54:09;97910.41;;;24.16;45.87
43155;BME280;34212;51.018;13.586;2023-07-16T19:59:11;97907.09;;;24.04;46.04
43155;BME280;34212;51.018;13.586;2023-07-16T20:04:12;97898.31;;;23.91;46.42
43155;BME280;34212;51.018;13.586;2023-07-16T20:09:14;97917.56;;;23.80;46.60
43155;BME280;34212;51.018;13.586;2023-07-16T20:14:16;97912.31;;;23.68;46.50
43155;BME280;34212;51.018;13.586;2023-07-16T20:19:18;97914.69;;;23.59;46.82
43155;BME280;34212;51.018;13.586;2023-07-16T20:24:19;97919.72;;;23.45;46.93
43155;BME280;34212;51.018;13.586;2023-07-16T20:29:21;97920.69;;;23.29;47.60
43155;BME280;34212;51.018;13.586;2023-07-16T20:34:23;97917.28;;;23.12;47.70
43155;BME280;34212;51.018;13.586;2023-07-16T20:39:24;97941.66;;;23.01;47.97
43155;BME280;34212;51.018;13.586;2023-07-16T20:44:26;97935.00;;;22.92;48.48
43155;BME280;34212;51.018;13.586;2023-07-16T20:49:27;97925.13;;;22.81;48.95
43155;BME280;34212;51.018;13.586;2023-07-16T20:54:30;97930.44;;;22.71;49.36
43155;BME280;34212;51.018;13.586;2023-07-16T20:59:31;97920.25;;;22.61;49.48
43155;BME280;34212;51.018;13.586;2023-07-16T21:04:33;97918.53;;;22.50;49.50
43155;BME280;34212;51.018;13.586;2023-07-16T21:09:34;97920.03;;;22.41;49.60
43155;BME280;34212;51.018;13.586;2023-07-16T21:14:36;97921.28;;;22.33;49.61
43155;BME280;34212;51.018;13.586;2023-07-16T21:19:37;97918.22;;;22.24;49.89
43155;BME280;34212;51.018;13.586;2023-07-16T21:24:39;97921.38;;;22.16;50.23
43155;BME280;34212;51.018;13.586;2023-07-16T21:29:40;97931.81;;;22.07;50.15
43155;BME280;34212;51.018;13.586;2023-07-16T21:34:42;97923.84;;;22.01;50.33
43155;BME280;34212;51.018;13.586;2023-07-16T21:39:43;97920.50;;;21.94;50.91
43155;BME280;34212;51.018;13.586;2023-07-16T21:44:45;97926.34;;;21.85;50.55
43155;BME280;34212;51.018;13.586;2023-07-16T21:49:47;97930.53;;;21.76;51.01
43155;BME280;34212;51.018;13.586;2023-07-16T21:54:48;97941.00;;;21.67;51.28
43155;BME280;34212;51.018;13.586;2023-07-16T21:59:50;97951.19;;;21.60;51.41
43155;BME280;34212;51.018;13.586;2023-07-16T22:04:51;97949.81;;;21.58;51.51
43155;BME280;34212;51.018;13.586;2023-07-16T22:09:53;97945.69;;;21.55;51.50
43155;BME280;34212;51.018;13.586;2023-07-16T22:14:54;97958.09;;;21.51;51.66
43155;BME280;34212;51.018;13.586;2023-07-16T22:19:57;97966.16;;;21.46;51.80
43155;BME280;34212;51.018;13.586;2023-07-16T22:24:58;97975.53;;;21.38;51.90
43155;BME280;34212;51.018;13.586;2023-07-16T22:30:00;97976.16;;;21.29;52.26
43155;BME280;34212;51.018;13.586;2023-07-16T22:35:01;97979.25;;;21.20;52.27
43155;BME280;34212;51.018;13.586;2023-07-16T22:40:05;97981.31;;;21.13;52.58
43155;BME280;34212;51.018;13.586;2023-07-16T22:45:07;97983.34;;;21.06;52.59
43155;BME280;34212;51.018;13.586;2023-07-16T22:50:09;97987.59;;;21.02;52.92
43155;BME280;34212;51.018;13.586;2023-07-16T22:55:10;97985.03;;;20.95;53.04
43155;BME280;34212;51.018;13.586;2023-07-16T23:00:12;97993.56;;;20.87;53.30
43155;BME280;34212;51.018;13.586;2023-07-16T23:05:15;97997.13;;;20.76;53.56
43155;BME280;34212;51.018;13.586;2023-07-16T23:10:16;97990.78;;;20.70;53.97
43155;BME280;34212;51.018;13.586;2023-07-16T23:15:18;97993.38;;;20.65;53.97
43155;BME280;34212;51.018;13.586;2023-07-16T23:20:22;97995.75;;;20.62;54.27
43155;BME280;34212;51.018;13.586;2023-07-16T23:25:24;97981.88;;;20.58;54.41
43155;BME280;34212;51.018;13.586;2023-07-16T23:30:26;97979.41;;;20.57;54.12
43155;BME280;34212;51.018;13.586;2023-07-16T23:35:32;97987.75;;;20.55;54.24
43155;BME280;34212;51.018;13.586;2023-07-16T23:40:33;97987.19;;;20.53;54.25
43155;BME280;34212;51.018;13.586;2023-07-16T23:45:35;97993.28;;;20.48;54.34
43155;BME280;34212;51.018;13.586;2023-07-16T23:50:37;97971.28;;;20.45;54.41
43155;BME280;34212;51.018;13.586;2023-07-16T23:55:38;97975.06;;;20.44;54.40
